sensor_id;sensor_type;location;lat;lon;timestamp;noise_LAeq;noise_LA_min;noise_LA_max;noise_LA01;noise_LA95
41704;Laerm;861;48.808;9.006;2024-01-10T00:00:07;37.51;36.25;38.78;;
41704;Laerm;861;48.808;9.006;2024-01-10T00:02:34;37.47;36.15;38.77;;
41704;Laerm;861;48.808;9.006;2024-01-10T00:05:00;37.37;36.15;38.56;;
41704;Laerm;861;48.808;9.006;2024-01-10T00:07:27;37.42;35.80;38.60;;
41704;Laerm;861;48.808;9.006;2024-01-10T00:09:54;37.47;36.06;38.74;;
41704;Laerm;861;48.808;9.006;2024-01-10T00:12:20;37.50;36.35;38.86;;
41704;Laerm;861;48.808;9.006;2024-01-10T00:14:47;37.49;36.17;38.80;;
41704;Laerm;861;48.808;9.006;2024-01-10T00:17:13;37.49;36.25;38.89;;
41704;Laerm;861;48.808;9.006;2024-01-10T00:19:40;37.52;36.14;38.86;;
41704;Laerm;861;48.808;9.006;2024-01-10T00:22:07;37.41;36.06;38.62;;
41704;Laerm;861;48.808;9.006;2024-01-10T00:24:33;37.41;35.96;38.88;;
41704;Laerm;861;48.808;9.006;2024-01-10T00:27:00;37.43;36.22;38.78;;
41704;Laerm;861;48.808;9.006;2024-01-10T00:29:26;37.41;36.18;38.62;;
41704;Laerm;861;48.808;9.006;2024-01-10T00:31:53;37.38;36.11;38.49;;
41704;Laerm;861;48.808;9.006;2024-01-10T00:34:20;37.33;35.78;38.44;;
41704;Laerm;861;48.808;9.006;2024-01-10T00:36:46;37.33;35.83;38.42;;
41704;Laerm;861;48.808;9.006;2024-01-10T00:39:13;37.31;35.57;38.47;;
41704;Laerm;861;48.808;9.006;2024-01-10T00:41:39;37.32;36.04;38.58;;
41704;Laerm;861;48.808;9.006;2024-01-10T00:44:06;37.37;35.95;38.56;;
41704;Laerm;861;48.808;9.006;2024-01-10T00:46:33;37.43;36.13;38.70;;
41704;Laerm;861;48.808;9.006;2024-01-10T00:48:59;37.46;36.16;38.60;;
41704;Laerm;861;48.808;9.006;2024-01-10T00:51:26;37.52;36.26;38.71;;
41704;Laerm;861;48.808;9.006;2024-01-10T00:53:53;37.40;35.99;38.60;;
41704;Laerm;861;48.808;9.006;2024-01-10T00:56:19;37.42;36.00;38.51;;
41704;Laerm;861;48.808;9.006;2024-01-10T00:58:46;37.41;35.99;38.57;;
41704;Laerm;861;48.808;9.006;2024-01-10T01:01:13;37.45;35.88;38.77;;
41704;Laerm;861;48.808;9.006;2024-01-10T01:03:39;37.42;36.07;38.64;;
41704;Laerm;861;48.808;9.006;2024-01-10T01:06:06;37.44;35.91;38.70;;
41704;Laerm;861;48.808;9.006;2024-01-10T01:08:33;37.40;35.87;38.66;;
41704;Laerm;861;48.808;9.006;2024-01-10T01:10:59;37.46;36.27;38.59;;
41704;Laerm;861;48.808;9.006;2024-01-10T01:13:26;37.46;36.28;38.62;;
41704;Laerm;861;48.808;9.006;2024-01-10T01:15:52;37.46;36.27;38.60;;
41704;Laerm;861;48.808;9.006;2024-01-10T01:18:19;37.47;36.01;38.64;;
41704;Laerm;861;48.808;9.006;2024-01-10T01:20:46;37.46;36.14;38.66;;
41704;Laerm;861;48.808;9.006;2024-01-10T01:23:15;37.42;35.99;38.69;;
41704;Laerm;861;48.808;9.006;2024-01-10T01:25:42;37.39;36.09;38.44;;
41704;Laerm;861;48.808;9.006;2024-01-10T01:28:09;37.43;36.03;38.73;;
41704;Laerm;861;48.808;9.006;2024-01-10T01:30:35;37.47;36.22;38.58;;
41704;Laerm;861;48.808;9.006;2024-01-10T01:33:02;37.47;36.15;38.61;;
41704;Laerm;861;48.808;9.006;2024-01-10T01:35:31;37.52;36.21;38.72;;
41704;Laerm;861;48.808;9.006;2024-01-10T01:37:58;37.51;36.25;38.76;;
41704;Laerm;861;48.808;9.006;2024-01-10T01:40:24;37.57;36.06;38.87;;
41704;Laerm;861;48.808;9.006;2024-01-10T01:42:51;37.53;36.04;38.71;;
41704;Laerm;861;48.808;9.006;2024-01-10T01:45:17;37.42;36.06;38.68;;
41704;Laerm;861;48.808;9.006;2024-01-10T01:47:45;37.43;36.04;38.60;;
41704;Laerm;861;48.808;9.006;2024-01-10T01:50:12;37.50;36.15;38.71;;
41704;Laerm;861;48.808;9.006;2024-01-10T01:52:39;37.62;36.12;38.71;;
41704;Laerm;861;48.808;9.006;2024-01-10T01:55:09;37.67;36.42;38.77;;
41704;Laerm;861;48.808;9.006;2024-01-10T01:57:39;37.65;36.36;38.80;;
41704;Laerm;861;48.808;9.006;2024-01-10T02:00:07;37.56;36.07;38.74;;
41704;Laerm;861;48.808;9.006;2024-01-10T02:02:38;37.43;36.05;38.53;;
41704;Laerm;861;48.808;9.006;2024-01-10T02:05:06;37.51;36.24;38.77;;
41704;Laerm;861;48.808;9.006;2024-01-10T02:07:33;37.52;36.26;38.69;;
41704;Laerm;861;48.808;9.006;2024-01-10T02:10:00;37.57;36.25;38.94;;
41704;Laerm;861;48.808;9.006;2024-01-10T02:12:27;37.60;36.09;38.71;;
41704;Laerm;861;48.808;9.006;2024-01-10T02:14:54;37.60;36.42;38.79;;
41704;Laerm;861;48.808;9.006;2024-01-10T02:17:25;37.55;36.04;39.02;;
41704;Laerm;861;48.808;9.006;2024-01-10T02:20:14;37.54;36.08;38.80;;
41704;Laerm;861;48.808;9.006;2024-01-10T02:22:47;37.43;35.90;38.79;;
41704;Laerm;861;48.808;9.006;2024-01-10T02:25:16;37.49;36.04;38.76;;
41704;Laerm;861;48.808;9.006;2024-01-10T02:27:44;37.54;36.35;38.74;;
41704;Laerm;861;48.808;9.006;2024-01-10T02:30:11;37.54;35.97;38.80;;
41704;Laerm;861;48.808;9.006;2024-01-10T02:32:39;37.56;36.29;38.90;;
41704;Laerm;861;48.808;9.006;2024-01-10T02:35:07;37.57;36.01;38.87;;
41704;Laerm;861;48.808;9.006;2024-01-10T02:37:34;37.55;36.35;39.08;;
41704;Laerm;861;48.808;9.006;2024-01-10T02:40:01;37.58;36.22;38.75;;
41704;Laerm;861;48.808;9.006;2024-01-10T02:42:28;37.58;36.38;38.88;;
41704;Laerm;861;48.808;9.006;2024-01-10T02:44:57;37.54;36.15;38.85;;
41704;Laerm;861;48.808;9.006;2024-01-10T02:47:23;37.56;36.20;39.06;;
41704;Laerm;861;48.808;9.006;2024-01-10T02:49:50;37.58;36.40;38.64;;
41704;Laerm;861;48.808;9.006;2024-01-10T02:52:17;37.61;36.08;38.90;;
41704;Laerm;861;48.808;9.006;2024-01-10T02:54:46;37.60;36.38;38.75;;
41704;Laerm;861;48.808;9.006;2024-01-10T02:57:13;37.59;36.37;39.08;;
41704;Laerm;861;48.808;9.006;2024-01-10T02:59:40;37.58;36.37;38.79;;
41704;Laerm;861;48.808;9.006;2024-01-10T03:02:06;37.54;36.13;38.97;;
41704;Laerm;861;48.808;9.006;2024-01-10T03:04:33;37.57;36.29;38.92;;
41704;Laerm;861;48.808;9.006;2024-01-10T03:07:00;37.60;36.15;38.83;;
41704;Laerm;861;48.808;9.006;2024-01-10T03:09:26;37.62;36.21;38.78;;
41704;Laerm;861;48.808;9.006;2024-01-10T03:11:53;37.60;36.34;38.83;;
41704;Laerm;861;48.808;9.006;2024-01-10T03:14:20;37.58;36.27;38.87;;
41704;Laerm;861;48.808;9.006;2024-01-10T03:25:21;37.62;36.20;38.93;;
41704;Laerm;861;48.808;9.006;2024-01-10T03:27:48;37.65;36.42;38.85;;
41704;Laerm;861;48.808;9.006;2024-01-10T03:30:15;37.65;36.24;38.83;;
41704;Laerm;861;48.808;9.006;2024-01-10T03:32:44;37.64;36.41;39.09;;
41704;Laerm;861;48.808;9.006;2024-01-10T03:35:11;37.64;36.44;38.92;;
41704;Laerm;861;48.808;9.006;2024-01-10T03:37:37;37.63;36.35;38.99;;
41704;Laerm;861;48.808;9.006;2024-01-10T03:40:04;37.62;36.05;39.00;;
41704;Laerm;861;48.808;9.006;2024-01-10T03:42:31;37.62;36.37;38.96;;
41704;Laerm;861;48.808;9.006;2024-01-10T03:44:58;37.61;36.42;38.83;;
41704;Laerm;861;48.808;9.006;2024-01-10T03:47:25;37.62;36.37;38.82;;
41704;Laerm;861;48.808;9.006;2024-01-10T03:49:51;37.62;36.24;38.72;;
41704;Laerm;861;48.808;9.006;2024-01-10T03:52:18;37.62;36.37;38.76;;
41704;Laerm;861;48.808;9.006;2024-01-10T03:54:45;37.62;36.54;38.75;;
41704;Laerm;861;48.808;9.006;2024-01-10T03:57:12;37.62;36.41;38.85;;
41704;Laerm;861;48.808;9.006;2024-01-10T03:59:38;37.63;36.24;38.82;;
41704;Laerm;861;48.808;9.006;2024-01-10T04:02:06;37.63;36.32;38.96;;
41704;Laerm;861;48.808;9.006;2024-01-10T04:04:32;37.63;36.34;39.06;;
41704;Laerm;861;48.808;9.006;2024-01-10T04:06:59;37.64;36.26;38.85;;
41704;Laerm;861;48.808;9.006;2024-01-10T04:09:25;37.66;36.29;38.83;;
41704;Laerm;861;48.808;9.006;2024-01-10T04:11:52;37.67;36.50;38.99;;
41704;Laerm;861;48.808;9.006;2024-01-10T04:14:19;37.68;36.32;38.96;;
41704;Laerm;861;48.808;9.006;2024-01-10T04:16:45;37.68;36.32;39.07;;
41704;Laerm;861;48.808;9.006;2024-01-10T04:19:12;37.68;36.32;38.89;;
41704;Laerm;861;48.808;9.006;2024-01-10T04:21:38;37.69;36.53;38.95;;
41704;Laerm;861;48.808;9.006;2024-01-10T04:24:05;37.68;36.26;39.00;;
41704;Laerm;861;48.808;9.006;2024-01-10T04:26:32;37.68;36.52;38.88;;
41704;Laerm;861;48.808;9.006;2024-01-10T04:28:59;37.68;36.45;38.95;;
41704;Laerm;861;48.808;9.006;2024-01-10T04:31:25;37.68;36.34;38.98;;
41704;Laerm;861;48.808;9.006;2024-01-10T04:33:52;37.68;36.39;38.88;;
41704;Laerm;861;48.808;9.006;2024-01-10T04:36:18;37.64;36.21;39.01;;
41704;Laerm;861;48.808;9.006;2024-01-10T04:38:45;37.63;36.49;38.96;;
41704;Laerm;861;48.808;9.006;2024-01-10T04:41:11;37.64;36.31;38.91;;
41704;Laerm;861;48.808;9.006;2024-01-10T04:43:38;37.65;36.29;38.71;;
41704;Laerm;861;48.808;9.006;2024-01-10T04:46:05;37.67;36.33;39.17;;
41704;Laerm;861;48.808;9.006;2024-01-10T04:48:32;37.66;36.44;38.84;;
41704;Laerm;861;48.808;9.006;2024-01-10T04:50:59;37.64;36.19;38.81;;
41704;Laerm;861;48.808;9.006;2024-01-10T04:53:25;37.65;36.33;38.87;;
41704;Laerm;861;48.808;9.006;2024-01-10T04:55:52;37.67;36.34;38.87;;
41704;Laerm;861;48.808;9.006;2024-01-10T04:58:19;37.66;36.10;38.95;;
41704;Laerm;861;48.808;9.006;2024-01-10T05:00:46;37.68;36.42;38.78;;
41704;Laerm;861;48.808;9.006;2024-01-10T05:03:13;37.68;36.31;38.95;;
41704;Laerm;861;48.808;9.006;2024-01-10T05:05:39;37.67;36.45;38.95;;
41704;Laerm;861;48.808;9.006;2024-01-10T05:08:06;37.66;36.36;38.68;;
41704;Laerm;861;48.808;9.006;2024-01-10T05:10:33;37.66;36.39;39.23;;
41704;Laerm;861;48.808;9.006;2024-01-10T05:13:00;37.65;36.03;38.86;;
41704;Laerm;861;48.808;9.006;2024-01-10T05:15:26;37.64;36.12;38.80;;
41704;Laerm;861;48.808;9.006;2024-01-10T05:17:53;37.56;36.28;38.77;;
41704;Laerm;861;48.808;9.006;2024-01-10T05:20:20;37.58;36.22;38.92;;
41704;Laerm;861;48.808;9.006;2024-01-10T05:22:47;37.60;36.09;38.89;;
41704;Laerm;861;48.808;9.006;2024-01-10T05:25:15;37.59;36.28;38.99;;
41704;Laerm;861;48.808;9.006;2024-01-10T05:27:44;37.59;36.24;38.70;;
41704;Laerm;861;48.808;9.006;2024-01-10T05:30:11;37.58;36.34;38.70;;
41704;Laerm;861;48.808;9.006;2024-01-10T05:32:39;37.58;36.22;38.95;;
41704;Laerm;861;48.808;9.006;2024-01-10T05:35:06;37.58;36.30;38.84;;
41704;Laerm;861;48.808;9.006;2024-01-10T05:37:34;37.55;36.30;38.74;;
41704;Laerm;861;48.808;9.006;2024-01-10T05:40:00;37.52;36.31;38.85;;
41704;Laerm;861;48.808;9.006;2024-01-10T05:42:27;37.49;36.12;38.81;;
41704;Laerm;861;48.808;9.006;2024-01-10T05:44:54;37.48;36.02;39.02;;
41704;Laerm;861;48.808;9.006;2024-01-10T05:47:23;37.48;36.16;38.62;;
41704;Laerm;861;48.808;9.006;2024-01-10T05:49:50;37.46;36.05;38.82;;
41704;Laerm;861;48.808;9.006;2024-01-10T05:52:16;37.44;36.09;38.50;;
41704;Laerm;861;48.808;9.006;2024-01-10T05:54:43;37.44;36.21;38.69;;
41704;Laerm;861;48.808;9.006;2024-01-10T05:57:10;37.46;35.81;38.64;;
41704;Laerm;861;48.808;9.006;2024-01-10T05:59:36;37.47;36.12;38.59;;
41704;Laerm;861;48.808;9.006;2024-01-10T06:02:04;37.47;36.03;38.74;;
41704;Laerm;861;48.808;9.006;2024-01-10T06:04:31;37.48;36.27;38.68;;
41704;Laerm;861;48.808;9.006;2024-01-10T06:07:00;37.48;35.98;38.57;;
41704;Laerm;861;48.808;9.006;2024-01-10T06:09:27;37.48;36.09;38.68;;
41704;Laerm;861;48.808;9.006;2024-01-10T06:11:53;37.45;36.03;38.64;;
41704;Laerm;861;48.808;9.006;2024-01-10T06:14:20;37.47;36.21;38.70;;
41704;Laerm;861;48.808;9.006;2024-01-10T06:16:47;37.42;35.79;38.77;;
41704;Laerm;861;48.808;9.006;2024-01-10T06:19:13;37.42;36.17;38.72;;
41704;Laerm;861;48.808;9.006;2024-01-10T06:21:40;37.33;36.06;38.51;;
41704;Laerm;861;48.808;9.006;2024-01-10T06:24:07;37.36;36.07;38.61;;
41704;Laerm;861;48.808;9.006;2024-01-10T06:26:34;37.33;35.98;38.78;;
41704;Laerm;861;48.808;9.006;2024-01-10T06:29:01;37.28;36.02;38.63;;
41704;Laerm;861;48.808;9.006;2024-01-10T06:31:27;37.37;36.14;38.52;;
41704;Laerm;861;48.808;9.006;2024-01-10T06:33:54;37.38;36.01;38.57;;
41704;Laerm;861;48.808;9.006;2024-01-10T06:36:21;37.41;36.02;38.71;;
41704;Laerm;861;48.808;9.006;2024-01-10T06:39:09;37.41;36.24;38.51;;
41704;Laerm;861;48.808;9.006;2024-01-10T06:41:48;37.43;36.01;38.94;;
41704;Laerm;861;48.808;9.006;2024-01-10T06:44:16;37.39;36.15;38.44;;
41704;Laerm;861;48.808;9.006;2024-01-10T06:46:46;37.38;36.14;38.55;;
41704;Laerm;861;48.808;9.006;2024-01-10T06:49:13;37.39;36.13;38.59;;
41704;Laerm;861;48.808;9.006;2024-01-10T06:51:39;37.39;36.20;38.62;;
41704;Laerm;861;48.808;9.006;2024-01-10T06:54:06;37.37;35.63;38.54;;
41704;Laerm;861;48.808;9.006;2024-01-10T06:56:34;37.31;36.10;38.52;;
41704;Laerm;861;48.808;9.006;2024-01-10T06:59:02;37.39;36.08;38.64;;
41704;Laerm;861;48.808;9.006;2024-01-10T07:01:29;37.45;36.07;38.57;;
41704;Laerm;861;48.808;9.006;2024-01-10T07:03:56;37.44;36.25;38.59;;
41704;Laerm;861;48.808;9.006;2024-01-10T07:06:23;37.41;36.02;38.87;;
41704;Laerm;861;48.808;9.006;2024-01-10T07:08:51;37.41;36.19;38.62;;
41704;Laerm;861;48.808;9.006;2024-01-10T07:11:19;37.39;36.25;38.58;;
41704;Laerm;861;48.808;9.006;2024-01-10T07:13:46;37.35;36.10;38.48;;
41704;Laerm;861;48.808;9.006;2024-01-10T07:16:13;37.36;36.02;38.60;;
41704;Laerm;861;48.808;9.006;2024-01-10T07:18:43;37.34;36.13;38.47;;
41704;Laerm;861;48.808;9.006;2024-01-10T07:21:12;37.32;35.88;38.50;;
41704;Laerm;861;48.808;9.006;2024-01-10T07:23:39;37.30;35.94;38.64;;
41704;Laerm;861;48.808;9.006;2024-01-10T07:26:07;37.26;36.06;38.75;;
41704;Laerm;861;48.808;9.006;2024-01-10T07:28:34;37.27;35.93;38.46;;
41704;Laerm;861;48.808;9.006;2024-01-10T07:31:01;37.29;36.07;38.79;;
41704;Laerm;861;48.808;9.006;2024-01-10T07:33:29;37.33;36.07;38.56;;
41704;Laerm;861;48.808;9.006;2024-01-10T07:36:00;37.31;35.72;38.47;;
41704;Laerm;861;48.808;9.006;2024-01-10T07:38:27;37.34;36.13;38.46;;
41704;Laerm;861;48.808;9.006;2024-01-10T07:40:53;37.34;35.97;38.67;;
41704;Laerm;861;48.808;9.006;2024-01-10T07:43:20;37.31;35.84;38.51;;
41704;Laerm;861;48.808;9.006;2024-01-10T07:45:47;37.31;35.84;38.55;;
41704;Laerm;861;48.808;9.006;2024-01-10T07:48:13;37.31;36.05;38.44;;
41704;Laerm;861;48.808;9.006;2024-01-10T07:50:40;37.34;35.92;38.51;;
41704;Laerm;861;48.808;9.006;2024-01-10T07:53:07;37.39;36.21;38.59;;
41704;Laerm;861;48.808;9.006;2024-01-10T07:55:34;37.42;36.25;38.57;;
41704;Laerm;861;48.808;9.006;2024-01-10T07:58:00;37.41;36.05;38.75;;
41704;Laerm;861;48.808;9.006;2024-01-10T08:00:28;37.44;36.05;38.52;;
41704;Laerm;861;48.808;9.006;2024-01-10T08:02:56;37.47;36.18;38.92;;
41704;Laerm;861;48.808;9.006;2024-01-10T08:05:24;37.52;36.31;38.96;;
41704;Laerm;861;48.808;9.006;2024-01-10T08:07:51;37.57;36.26;38.73;;
41704;Laerm;861;48.808;9.006;2024-01-10T08:10:18;37.61;36.09;38.89;;
41704;Laerm;861;48.808;9.006;2024-01-10T08:12:44;37.62;36.35;38.81;;
41704;Laerm;861;48.808;9.006;2024-01-10T08:15:11;37.61;36.34;38.74;;
41704;Laerm;861;48.808;9.006;2024-01-10T08:17:38;37.62;36.20;38.89;;
41704;Laerm;861;48.808;9.006;2024-01-10T08:20:09;37.64;36.10;39.12;;
41704;Laerm;861;48.808;9.006;2024-01-10T08:22:37;37.69;36.31;38.80;;
41704;Laerm;861;48.808;9.006;2024-01-10T08:25:05;37.77;36.56;39.05;;
41704;Laerm;861;48.808;9.006;2024-01-10T08:27:33;37.81;36.49;39.07;;
41704;Laerm;861;48.808;9.006;2024-01-10T08:30:02;37.83;36.45;39.14;;
41704;Laerm;861;48.808;9.006;2024-01-10T08:32:31;37.85;36.22;38.93;;
41704;Laerm;861;48.808;9.006;2024-01-10T08:34:58;37.84;36.38;39.03;;
41704;Laerm;861;48.808;9.006;2024-01-10T08:37:24;37.86;36.42;39.12;;
41704;Laerm;861;48.808;9.006;2024-01-10T08:39:51;37.85;36.33;39.19;;
41704;Laerm;861;48.808;9.006;2024-01-10T08:42:17;37.85;36.55;39.15;;
41704;Laerm;861;48.808;9.006;2024-01-10T08:44:44;37.85;36.38;39.01;;
41704;Laerm;861;48.808;9.006;2024-01-10T08:47:11;37.85;36.62;39.24;;
41704;Laerm;861;48.808;9.006;2024-01-10T08:49:37;37.86;36.58;39.05;;
41704;Laerm;861;48.808;9.006;2024-01-10T08:52:05;37.85;36.49;39.15;;
41704;Laerm;861;48.808;9.006;2024-01-10T08:54:32;37.85;36.23;39.13;;
41704;Laerm;861;48.808;9.006;2024-01-10T08:56:58;37.85;36.33;39.03;;
41704;Laerm;861;48.808;9.006;2024-01-10T08:59:27;37.83;36.42;39.18;;
41704;Laerm;861;48.808;9.006;2024-01-10T09:01:54;37.84;36.13;39.03;;
41704;Laerm;861;48.808;9.006;2024-01-10T09:04:21;37.80;36.22;39.05;;
41704;Laerm;861;48.808;9.006;2024-01-10T09:06:47;37.81;36.55;39.22;;
41704;Laerm;861;48.808;9.006;2024-01-10T09:09:14;37.77;36.27;39.11;;
41704;Laerm;861;48.808;9.006;2024-01-10T09:11:41;37.78;36.50;39.05;;
41704;Laerm;861;48.808;9.006;2024-01-10T09:14:07;37.77;35.99;38.94;;
41704;Laerm;861;48.808;9.006;2024-01-10T09:16:35;37.77;36.46;38.99;;
41704;Laerm;861;48.808;9.006;2024-01-10T09:19:01;37.67;36.32;38.98;;
41704;Laerm;861;48.808;9.006;2024-01-10T09:21:28;37.68;36.30;39.06;;
41704;Laerm;861;48.808;9.006;2024-01-10T09:23:55;37.69;36.48;38.97;;
41704;Laerm;861;48.808;9.006;2024-01-10T09:26:22;37.70;36.27;39.12;;
41704;Laerm;861;48.808;9.006;2024-01-10T09:28:49;37.68;36.15;38.85;;
41704;Laerm;861;48.808;9.006;2024-01-10T09:31:16;37.63;36.32;38.89;;
41704;Laerm;861;48.808;9.006;2024-01-10T09:33:42;37.50;35.97;38.91;;
41704;Laerm;861;48.808;9.006;2024-01-10T09:36:09;37.47;35.78;38.66;;
41704;Laerm;861;48.808;9.006;2024-01-10T09:38:39;37.47;36.03;38.69;;
41704;Laerm;861;48.808;9.006;2024-01-10T09:41:06;37.42;35.74;38.65;;
41704;Laerm;861;48.808;9.006;2024-01-10T09:43:33;37.44;36.11;38.94;;
41704;Laerm;861;48.808;9.006;2024-01-10T09:46:02;37.37;35.87;38.66;;
41704;Laerm;861;48.808;9.006;2024-01-10T09:48:32;37.34;36.02;38.68;;
41704;Laerm;861;48.808;9.006;2024-01-10T09:51:00;37.30;35.74;38.60;;
41704;Laerm;861;48.808;9.006;2024-01-10T09:53:31;37.27;35.89;38.52;;
41704;Laerm;861;48.808;9.006;2024-01-10T09:56:05;37.20;35.64;38.49;;
41704;Laerm;861;48.808;9.006;2024-01-10T09:58:32;37.19;35.92;38.53;;
41704;Laerm;861;48.808;9.006;2024-01-10T10:01:06;37.19;35.77;38.63;;
41704;Laerm;861;48.808;9.006;2024-01-10T10:03:41;37.17;35.84;38.43;;
41704;Laerm;861;48.808;9.006;2024-01-10T10:06:11;37.21;36.05;38.79;;
41704;Laerm;861;48.808;9.006;2024-01-10T10:08:38;37.20;35.78;38.53;;
41704;Laerm;861;48.808;9.006;2024-01-10T10:11:06;37.21;35.89;38.53;;
41704;Laerm;861;48.808;9.006;2024-01-10T10:13:33;37.23;35.93;38.54;;
41704;Laerm;861;48.808;9.006;2024-01-10T10:16:04;37.26;35.80;38.52;;
41704;Laerm;861;48.808;9.006;2024-01-10T10:18:32;37.26;35.87;38.47;;
41704;Laerm;861;48.808;9.006;2024-01-10T10:21:12;37.24;35.97;38.65;;
41704;Laerm;861;48.808;9.006;2024-01-10T10:23:57;37.26;35.74;38.58;;
41704;Laerm;861;48.808;9.006;2024-01-10T10:26:26;37.25;35.94;38.45;;
41704;Laerm;861;48.808;9.006;2024-01-10T10:28:53;37.19;35.88;38.48;;
41704;Laerm;861;48.808;9.006;2024-01-10T10:31:21;37.15;35.51;38.49;;
41704;Laerm;861;48.808;9.006;2024-01-10T10:33:51;37.07;35.65;38.44;;
41704;Laerm;861;48.808;9.006;2024-01-10T10:36:19;37.04;35.66;38.46;;
41704;Laerm;861;48.808;9.006;2024-01-10T10:38:50;37.10;35.73;38.34;;
41704;Laerm;861;48.808;9.006;2024-01-10T10:41:19;37.11;35.78;38.48;;
41704;Laerm;861;48.808;9.006;2024-01-10T10:43:46;37.06;35.46;38.52;;
41704;Laerm;861;48.808;9.006;2024-01-10T10:46:14;37.00;35.49;38.09;;
41704;Laerm;861;48.808;9.006;2024-01-10T10:48:42;36.92;35.58;38.27;;
41704;Laerm;861;48.808;9.006;2024-01-10T10:51:17;36.81;35.26;38.07;;
41704;Laerm;861;48.808;9.006;2024-01-10T10:53:49;36.84;35.52;38.23;;
41704;Laerm;861;48.808;9.006;2024-01-10T10:56:18;36.89;35.38;38.24;;
41704;Laerm;861;48.808;9.006;2024-01-10T10:58:45;36.90;35.38;38.17;;
41704;Laerm;861;48.808;9.006;2024-01-10T11:01:15;36.89;35.46;38.24;;
41704;Laerm;861;48.808;9.006;2024-01-10T11:03:42;36.76;35.14;38.07;;
41704;Laerm;861;48.808;9.006;2024-01-10T11:06:11;36.67;35.34;37.95;;
41704;Laerm;861;48.808;9.006;2024-01-10T11:08:52;36.68;35.28;37.97;;
41704;Laerm;861;48.808;9.006;2024-01-10T11:11:58;36.72;35.39;38.12;;
41704;Laerm;861;48.808;9.006;2024-01-10T11:21:24;36.60;35.15;38.06;;
41704;Laerm;861;48.808;9.006;2024-01-10T11:24:02;36.63;35.02;37.96;;
41704;Laerm;861;48.808;9.006;2024-01-10T11:26:29;36.63;35.14;38.06;;
41704;Laerm;861;48.808;9.006;2024-01-10T11:28:58;36.66;35.33;38.15;;
41704;Laerm;861;48.808;9.006;2024-01-10T11:31:32;36.62;35.14;37.90;;
41704;Laerm;861;48.808;9.006;2024-01-10T11:34:03;36.62;35.40;38.16;;
41704;Laerm;861;48.808;9.006;2024-01-10T11:36:30;36.62;35.32;38.03;;
41704;Laerm;861;48.808;9.006;2024-01-10T11:39:05;36.60;35.07;37.88;;
41704;Laerm;861;48.808;9.006;2024-01-10T11:41:38;36.58;35.13;38.25;;
41704;Laerm;861;48.808;9.006;2024-01-10T11:46:51;36.48;35.03;37.78;;
41704;Laerm;861;48.808;9.006;2024-01-10T11:49:21;36.48;35.09;37.98;;
41704;Laerm;861;48.808;9.006;2024-01-10T11:51:58;36.43;35.04;37.86;;
41704;Laerm;861;48.808;9.006;2024-01-10T11:54:46;36.42;34.56;38.04;;
41704;Laerm;861;48.808;9.006;2024-01-10T11:57:28;36.46;35.07;37.75;;
41704;Laerm;861;48.808;9.006;2024-01-10T11:59:56;36.38;34.97;37.67;;
41704;Laerm;861;48.808;9.006;2024-01-10T12:02:27;36.39;35.03;37.72;;
41704;Laerm;861;48.808;9.006;2024-01-10T12:04:55;36.43;35.17;37.68;;
41704;Laerm;861;48.808;9.006;2024-01-10T12:07:22;36.38;34.86;37.87;;
41704;Laerm;861;48.808;9.006;2024-01-10T12:09:51;36.34;34.94;37.54;;
41704;Laerm;861;48.808;9.006;2024-01-10T12:12:18;36.34;34.96;37.76;;
41704;Laerm;861;48.808;9.006;2024-01-10T12:14:45;36.34;35.00;37.88;;
41704;Laerm;861;48.808;9.006;2024-01-10T12:17:12;36.31;34.61;37.59;;
41704;Laerm;861;48.808;9.006;2024-01-10T12:19:39;36.27;34.57;37.67;;
41704;Laerm;861;48.808;9.006;2024-01-10T12:22:06;36.30;34.99;37.65;;
41704;Laerm;861;48.808;9.006;2024-01-10T12:24:33;36.30;34.82;37.72;;
41704;Laerm;861;48.808;9.006;2024-01-10T12:27:01;36.27;34.87;37.61;;
41704;Laerm;861;48.808;9.006;2024-01-10T12:29:28;36.21;34.92;37.67;;
41704;Laerm;861;48.808;9.006;2024-01-10T12:31:54;36.13;34.77;37.42;;
41704;Laerm;861;48.808;9.006;2024-01-10T12:34:21;36.17;34.57;37.48;;
41704;Laerm;861;48.808;9.006;2024-01-10T12:36:48;36.22;34.45;37.86;;
41704;Laerm;861;48.808;9.006;2024-01-10T12:39:16;36.19;34.54;37.69;;
41704;Laerm;861;48.808;9.006;2024-01-10T12:41:43;36.20;34.73;37.75;;
41704;Laerm;861;48.808;9.006;2024-01-10T12:44:11;36.25;34.88;37.61;;
41704;Laerm;861;48.808;9.006;2024-01-10T12:46:51;36.23;34.84;37.66;;
41704;Laerm;861;48.808;9.006;2024-01-10T12:49:19;36.24;34.98;37.56;;
41704;Laerm;861;48.808;9.006;2024-01-10T12:51:48;36.14;34.68;37.53;;
41704;Laerm;861;48.808;9.006;2024-01-10T12:54:16;36.14;34.66;37.34;;
41704;Laerm;861;48.808;9.006;2024-01-10T12:56:45;36.15;34.41;37.70;;
41704;Laerm;861;48.808;9.006;2024-01-10T12:59:12;36.12;34.47;37.51;;
41704;Laerm;861;48.808;9.006;2024-01-10T13:01:40;36.14;34.59;37.38;;
41704;Laerm;861;48.808;9.006;2024-01-10T13:04:08;36.12;34.69;37.59;;
41704;Laerm;861;48.808;9.006;2024-01-10T13:06:35;36.08;34.42;37.46;;
41704;Laerm;861;48.808;9.006;2024-01-10T13:09:01;36.10;34.59;37.36;;
41704;Laerm;861;48.808;9.006;2024-01-10T13:11:28;36.10;34.67;37.56;;
41704;Laerm;861;48.808;9.006;2024-01-10T13:13:58;36.11;34.45;37.68;;
41704;Laerm;861;48.808;9.006;2024-01-10T13:16:34;36.09;34.67;37.34;;
41704;Laerm;861;48.808;9.006;2024-01-10T13:19:03;36.04;34.65;37.37;;
41704;Laerm;861;48.808;9.006;2024-01-10T13:21:31;36.05;34.57;37.24;;
41704;Laerm;861;48.808;9.006;2024-01-10T13:23:57;36.03;34.45;37.23;;
41704;Laerm;861;48.808;9.006;2024-01-10T13:26:27;36.02;34.44;37.44;;
41704;Laerm;861;48.808;9.006;2024-01-10T13:28:54;35.96;34.45;37.24;;
41704;Laerm;861;48.808;9.006;2024-01-10T13:31:21;35.94;34.37;37.14;;
41704;Laerm;861;48.808;9.006;2024-01-10T13:33:50;35.89;34.41;37.28;;
41704;Laerm;861;48.808;9.006;2024-01-10T13:36:17;35.88;34.46;37.14;;
41704;Laerm;861;48.808;9.006;2024-01-10T13:38:44;35.89;34.40;37.36;;
41704;Laerm;861;48.808;9.006;2024-01-10T13:41:10;35.93;34.61;37.29;;
41704;Laerm;861;48.808;9.006;2024-01-10T13:43:41;35.99;34.61;37.33;;
41704;Laerm;861;48.808;9.006;2024-01-10T13:46:07;35.98;34.64;37.20;;
41704;Laerm;861;48.808;9.006;2024-01-10T13:48:34;35.95;34.44;37.39;;
41704;Laerm;861;48.808;9.006;2024-01-10T13:51:00;35.90;34.51;37.22;;
41704;Laerm;861;48.808;9.006;2024-01-10T13:53:27;35.92;34.19;37.20;;
41704;Laerm;861;48.808;9.006;2024-01-10T13:55:57;35.96;34.59;37.38;;
41704;Laerm;861;48.808;9.006;2024-01-10T13:58:23;35.88;34.45;37.10;;
41704;Laerm;861;48.808;9.006;2024-01-10T14:00:51;35.88;34.50;37.39;;
41704;Laerm;861;48.808;9.006;2024-01-10T14:03:17;35.89;34.43;37.31;;
41704;Laerm;861;48.808;9.006;2024-01-10T14:05:44;35.91;34.34;37.22;;
41704;Laerm;861;48.808;9.006;2024-01-10T14:08:11;35.86;34.58;37.11;;
41704;Laerm;861;48.808;9.006;2024-01-10T14:10:38;35.81;34.47;37.13;;
41704;Laerm;861;48.808;9.006;2024-01-10T14:13:05;35.80;34.33;37.37;;
41704;Laerm;861;48.808;9.006;2024-01-10T14:15:32;35.77;34.37;37.08;;
41704;Laerm;861;48.808;9.006;2024-01-10T14:17:58;35.80;34.46;37.51;;
41704;Laerm;861;48.808;9.006;2024-01-10T14:20:25;35.77;34.45;37.20;;
41704;Laerm;861;48.808;9.006;2024-01-10T14:22:52;35.79;34.31;37.13;;
41704;Laerm;861;48.808;9.006;2024-01-10T14:25:18;35.73;34.14;37.11;;
41704;Laerm;861;48.808;9.006;2024-01-10T14:27:47;35.69;34.25;37.09;;
41704;Laerm;861;48.808;9.006;2024-01-10T14:30:14;35.73;34.31;37.10;;